Time;durP1;ratioP1;P1;durP2;ratioP2;P2;SDS_P1;SDS_P2;PMS_P1;PMS_P2;Temp;Humidity;BMP_temperature;BMP_pressure;BME280_temperature;BME280_humidity;BME280_pressure;Samples;Min_cycle;Max_cycle;Signal;HPM_P1;HPM_P2
2020/12/14 06:41:45;;;;;;;8.23;6.20;;;5.90;99.90;;;;;;10964329;24;20305;-82
2020/12/14 06:47:13;;;;;;;7.60;5.50;;;5.70;99.90;;;;;;9984976;29;20596;-84
2020/12/14 06:52:35;;;;;;;7.33;5.77;;;5.80;99.90;;;;;;9984195;29;20281;-81
2020/12/14 06:58:08;;;;;;;10.33;6.07;;;5.80;99.90;;;;;;9985200;29;20605;-82
2020/12/14 07:03:37;;;;;;;7.83;5.97;;;5.80;99.90;;;;;;9985109;29;20224;-80
2020/12/14 07:08:59;;;;;;;9.40;5.80;;;5.90;99.90;;;;;;9977077;29;20204;-81
2020/12/14 07:14:29;;;;;;;10.20;6.27;;;5.90;99.90;;;;;;9986704;29;20716;-81
2020/12/14 07:19:52;;;;;;;6.57;5.57;;;6.00;99.90;;;;;;9998121;29;20229;-80
2020/12/14 07:25:20;;;;;;;8.63;5.90;;;5.90;99.90;;;;;;10021080;29;20724;-82
2020/12/14 07:30:43;;;;;;;7.47;5.60;;;6.00;99.90;;;;;;10020793;29;20228;-82
2020/12/14 07:36:07;;;;;;;6.57;5.00;;;6.00;99.90;;;;;;9986799;29;20209;-81
2020/12/14 07:41:29;;;;;;;7.73;5.50;;;6.00;99.90;;;;;;9954314;29;20782;-83
2020/12/14 07:46:51;;;;;;;6.23;4.67;;;6.00;99.90;;;;;;9975357;29;20225;-83
2020/12/14 07:52:26;;;;;;;12.63;5.10;;;6.00;99.90;;;;;;9991805;29;20248;-82
2020/12/14 07:57:48;;;;;;;6.70;5.13;;;6.10;99.90;;;;;;9985170;29;20210;-82
2020/12/14 08:03:11;;;;;;;8.20;4.93;;;6.20;99.90;;;;;;9988964;29;20236;-82
2020/12/14 08:08:33;;;;;;;6.73;5.00;;;6.40;99.90;;;;;;9996271;29;20225;-82
2020/12/14 08:13:55;;;;;;;8.77;4.63;;;6.30;99.90;;;;;;9986216;29;20718;-82
2020/12/14 08:19:20;;;;;;;5.77;4.50;;;6.40;99.90;;;;;;9996805;29;20656;-83
2020/12/14 08:24:42;;;;;;;7.97;4.60;;;6.40;99.90;;;;;;10008308;29;20244;-82
2020/12/14 08:30:06;;;;;;;4.90;3.80;;;6.40;99.90;;;;;;9992681;29;20225;-82
2020/12/14 08:35:29;;;;;;;5.67;4.10;;;6.50;99.90;;;;;;10000198;29;20201;-81
2020/12/14 08:40:54;;;;;;;6.23;3.90;;;6.60;99.90;;;;;;10031593;29;20229;-81
2020/12/14 08:46:18;;;;;;;4.43;3.60;;;6.70;99.90;;;;;;10015679;29;20225;-81
2020/12/14 08:51:40;;;;;;;6.60;3.57;;;6.70;99.90;;;;;;9986496;29;20229;-82
2020/12/14 08:57:02;;;;;;;5.27;3.77;;;6.80;99.90;;;;;;9982810;29;20196;-82
2020/12/14 09:02:25;;;;;;;6.80;3.47;;;7.00;99.90;;;;;;10026054;29;20591;-81
2020/12/14 09:07:47;;;;;;;3.53;2.80;;;6.90;99.90;;;;;;10024684;29;20743;-81
2020/12/14 09:13:09;;;;;;;4.60;2.90;;;6.90;99.90;;;;;;10006117;29;20225;-82
2020/12/14 09:18:33;;;;;;;2.60;2.20;;;7.10;99.90;;;;;;9985933;29;20209;-84
2020/12/14 09:24:12;;;;;;;8.17;3.00;;;7.20;99.90;;;;;;9963436;29;20698;-82
2020/12/14 09:29:35;;;;;;;4.40;2.70;;;7.10;99.90;;;;;;10000522;29;20209;-82
2020/12/14 09:34:57;;;;;;;3.20;2.30;;;7.20;99.90;;;;;;9997344;29;20204;-83
2020/12/14 09:40:20;;;;;;;4.13;1.90;;;7.30;99.90;;;;;;10022138;29;21052;-84
2020/12/14 09:45:41;;;;;;;2.20;1.73;;;7.40;99.90;;;;;;9988470;29;20315;-85
2020/12/14 09:51:04;;;;;;;3.67;1.97;;;7.40;99.90;;;;;;9984255;29;20235;-83
2020/12/14 09:56:26;;;;;;;2.57;1.80;;;7.40;99.90;;;;;;10014212;29;20204;-83
2020/12/14 10:01:48;;;;;;;4.70;2.00;;;7.60;99.90;;;;;;9994861;29;20235;-84
2020/12/14 10:07:09;;;;;;;4.93;1.83;;;7.60;99.90;;;;;;9979980;29;20222;-84
2020/12/14 10:12:32;;;;;;;2.73;1.70;;;7.70;99.90;;;;;;9983315;29;20228;-85
2020/12/14 10:17:54;;;;;;;4.33;2.30;;;7.80;99.90;;;;;;9993335;29;20223;-86
2020/12/14 10:23:15;;;;;;;3.17;1.70;;;7.90;99.90;;;;;;9999233;29;20236;-81
2020/12/14 10:28:39;;;;;;;2.53;1.70;;;7.80;99.90;;;;;;9973127;29;20580;-82
2020/12/14 10:34:01;;;;;;;2.63;1.70;;;7.80;99.90;;;;;;9961812;29;20449;-81
2020/12/14 10:39:23;;;;;;;3.83;1.50;;;7.60;99.90;;;;;;10013994;29;20216;-81
2020/12/14 10:44:45;;;;;;;2.50;1.23;;;7.70;99.90;;;;;;10023386;29;20580;-80
2020/12/14 10:50:08;;;;;;;3.93;1.60;;;7.90;99.90;;;;;;10022157;29;20224;-82
2020/12/14 10:55:29;;;;;;;2.50;1.37;;;7.80;99.90;;;;;;9942225;29;20201;-82
2020/12/14 11:00:52;;;;;;;2.60;1.30;;;7.60;99.90;;;;;;9977649;29;20224;-83
2020/12/14 11:06:13;;;;;;;2.57;1.80;;;7.80;99.90;;;;;;9994643;29;20228;-83
2020/12/14 11:11:35;;;;;;;4.57;1.90;;;7.70;99.90;;;;;;9984750;29;20323;-82
2020/12/14 11:16:58;;;;;;;2.60;1.47;;;7.70;99.90;;;;;;9991534;29;20246;-82
2020/12/14 11:22:20;;;;;;;3.67;1.40;;;8.00;99.90;;;;;;10004269;29;20239;-81
2020/12/14 11:27:41;;;;;;;6.00;1.87;;;8.20;99.90;;;;;;9973984;29;20229;-81
2020/12/14 11:33:04;;;;;;;2.80;1.30;;;8.10;99.90;;;;;;9984273;29;20217;-81
2020/12/14 11:38:27;;;;;;;3.83;1.47;;;7.90;99.90;;;;;;9985126;29;20213;-84
2020/12/14 11:43:48;;;;;;;2.90;1.47;;;8.00;99.90;;;;;;9990072;29;20244;-86
2020/12/14 11:49:11;;;;;;;3.70;1.60;;;8.00;99.90;;;;;;9986952;29;20212;-81
2020/12/14 11:54:32;;;;;;;2.20;1.50;;;8.00;99.90;;;;;;9981429;29;20249;-84
2020/12/14 11:59:54;;;;;;;4.67;1.90;;;8.30;99.90;;;;;;9984659;29;20233;-81
2020/12/14 12:05:17;;;;;;;3.47;1.70;;;8.30;99.90;;;;;;10011681;29;20239;-79
2020/12/14 12:10:39;;;;;;;2.60;1.60;;;8.40;99.90;;;;;;10023808;29;20607;-80
2020/12/14 12:16:00;;;;;;;3.40;2.07;;;8.50;99.90;;;;;;9991652;29;20214;-80
2020/12/14 12:21:23;;;;;;;2.80;2.13;;;8.60;99.90;;;;;;10021858;29;20224;-81
2020/12/14 12:26:49;;;;;;;3.77;1.80;;;8.60;99.90;;;;;;10021766;29;20239;-82
2020/12/14 12:32:10;;;;;;;2.60;1.80;;;8.50;99.90;;;;;;10015494;29;20261;-79
2020/12/14 12:37:33;;;;;;;4.60;1.97;;;8.50;99.90;;;;;;10019797;29;20281;-81
2020/12/14 12:42:54;;;;;;;5.23;3.27;;;8.50;99.90;;;;;;10011286;29;20233;-81
2020/12/14 12:48:16;;;;;;;4.43;1.87;;;8.60;99.90;;;;;;9982964;29;20208;-79
2020/12/14 12:53:39;;;;;;;3.77;2.40;;;8.70;99.90;;;;;;9981782;29;20240;-80
2020/12/14 12:59:00;;;;;;;2.17;1.43;;;8.80;99.90;;;;;;9984106;29;20584;-78
2020/12/14 13:04:22;;;;;;;4.93;2.67;;;8.90;99.90;;;;;;10000253;29;20231;-79
2020/12/14 13:09:45;;;;;;;4.73;2.13;;;8.90;99.90;;;;;;9983517;29;20205;-79
2020/12/14 13:15:06;;;;;;;4.33;1.70;;;8.90;99.90;;;;;;9980036;29;20197;-79
2020/12/14 13:20:28;;;;;;;4.23;1.80;;;8.80;99.90;;;;;;9979705;29;20229;-81
2020/12/14 13:25:50;;;;;;;6.00;2.40;;;8.80;99.90;;;;;;9978462;29;20624;-81
2020/12/14 13:31:12;;;;;;;3.17;2.03;;;8.80;99.90;;;;;;9976972;29;20240;-79
2020/12/14 13:36:34;;;;;;;5.87;2.20;;;8.80;99.90;;;;;;9974404;29;20739;-80
2020/12/14 13:41:56;;;;;;;4.13;2.37;;;8.90;99.90;;;;;;9982934;29;20242;-82
2020/12/14 13:47:18;;;;;;;4.07;1.80;;;8.90;99.90;;;;;;9986327;29;20229;-83
2020/12/14 13:52:40;;;;;;;3.63;2.00;;;8.80;99.90;;;;;;9987491;29;20232;-82
2020/12/14 13:58:02;;;;;;;4.73;2.43;;;8.90;99.90;;;;;;9984403;29;20208;-79
2020/12/14 14:03:24;;;;;;;3.70;1.93;;;8.90;99.90;;;;;;9982651;29;20236;-80
2020/12/14 14:08:46;;;;;;;2.83;1.80;;;8.90;99.90;;;;;;9983205;29;20197;-80
2020/12/14 14:14:08;;;;;;;2.47;1.63;;;8.90;99.90;;;;;;9976973;29;20221;-80
2020/12/14 14:19:33;;;;;;;6.90;1.90;;;9.00;99.90;;;;;;9986928;29;20213;-84
2020/12/14 14:24:54;;;;;;;5.60;1.90;;;8.90;99.90;;;;;;9990671;29;20650;-83
2020/12/14 14:30:17;;;;;;;3.00;2.10;;;8.90;99.90;;;;;;9995107;29;20221;-82
2020/12/14 14:35:39;;;;;;;2.20;1.70;;;8.90;99.90;;;;;;9992007;29;20209;-82
2020/12/14 14:41:00;;;;;;;2.57;1.53;;;8.90;99.90;;;;;;9994086;29;20236;-82
2020/12/14 14:46:23;;;;;;;3.30;1.50;;;8.80;99.90;;;;;;10003176;29;20221;-84
2020/12/14 14:51:45;;;;;;;5.10;1.60;;;8.70;99.90;;;;;;10000939;29;20232;-82
2020/12/14 14:57:07;;;;;;;2.47;1.37;;;8.80;99.90;;;;;;9997656;29;20274;-84
2020/12/14 15:02:29;;;;;;;4.27;1.90;;;8.80;99.90;;;;;;10006874;29;20225;-84
2020/12/14 15:07:51;;;;;;;4.43;2.10;;;8.80;99.90;;;;;;9998325;29;20229;-84
2020/12/14 15:13:14;;;;;;;3.13;1.93;;;8.80;99.90;;;;;;9983375;29;20221;-81
2020/12/14 15:18:36;;;;;;;4.60;2.40;;;8.70;99.90;;;;;;9985406;29;20657;-81
2020/12/14 15:23:59;;;;;;;4.37;2.07;;;8.70;99.90;;;;;;9984911;29;20595;-80
2020/12/14 15:29:20;;;;;;;3.17;2.27;;;8.80;99.90;;;;;;9986846;29;20212;-80
2020/12/14 15:34:43;;;;;;;6.00;2.50;;;8.70;99.90;;;;;;9985243;29;20189;-80
2020/12/14 15:40:05;;;;;;;3.33;2.37;;;8.70;99.90;;;;;;9981233;29;20233;-82
2020/12/14 15:45:26;;;;;;;4.17;2.60;;;8.70;99.90;;;;;;9986134;29;20631;-83
2020/12/14 15:50:49;;;;;;;2.60;2.40;;;8.70;99.90;;;;;;9987969;29;20217;-82
2020/12/14 15:56:15;;;;;;;3.53;2.10;;;8.70;99.90;;;;;;9984223;29;20205;-81
2020/12/14 16:01:38;;;;;;;2.30;2.10;;;8.70;99.90;;;;;;10006051;29;20221;-81
2020/12/14 16:07:01;;;;;;;3.43;2.13;;;8.70;99.90;;;;;;10003775;29;20723;-80
2020/12/14 16:12:22;;;;;;;3.97;1.93;;;8.70;99.90;;;;;;9983168;29;20229;-81
2020/12/14 16:17:44;;;;;;;3.90;2.20;;;8.70;99.90;;;;;;9981371;29;20890;-82
2020/12/14 16:23:07;;;;;;;4.57;2.13;;;8.80;99.90;;;;;;9982257;29;20232;-80
2020/12/14 16:28:29;;;;;;;3.00;1.90;;;8.80;99.90;;;;;;9982278;29;20209;-81
2020/12/14 16:33:51;;;;;;;4.73;2.00;;;8.80;99.90;;;;;;9981224;29;20227;-81
2020/12/14 16:39:13;;;;;;;4.57;2.20;;;8.90;99.90;;;;;;9984528;29;20212;-83
2020/12/14 16:44:35;;;;;;;4.70;2.30;;;8.80;99.90;;;;;;9946295;29;20225;-80
2020/12/14 16:49:57;;;;;;;3.37;2.00;;;8.90;99.90;;;;;;9951571;29;20233;-83
2020/12/14 16:55:19;;;;;;;4.03;2.57;;;8.90;99.90;;;;;;9950902;29;20198;-82
2020/12/14 17:00:42;;;;;;;4.90;2.80;;;8.80;99.90;;;;;;9993298;29;20224;-81
2020/12/14 17:06:05;;;;;;;3.57;2.50;;;8.80;99.90;;;;;;9986307;29;20235;-80
2020/12/14 17:11:31;;;;;;;2.93;2.20;;;8.90;99.90;;;;;;9983088;29;20366;-82
2020/12/14 17:16:53;;;;;;;4.83;2.20;;;8.90;99.90;;;;;;9989081;29;20208;-82
2020/12/14 17:22:17;;;;;;;3.40;2.43;;;8.90;99.90;;;;;;10026470;29;20606;-81
2020/12/14 17:27:40;;;;;;;3.07;1.93;;;8.80;99.90;;;;;;10028660;29;20228;-80
2020/12/14 17:33:01;;;;;;;4.03;2.30;;;8.80;99.90;;;;;;9982236;29;20231;-81
2020/12/14 17:38:23;;;;;;;2.20;1.80;;;8.70;99.90;;;;;;9982380;29;20201;-82
2020/12/14 17:43:46;;;;;;;2.33;1.70;;;8.80;99.90;;;;;;9981693;29;20237;-82
2020/12/14 17:49:07;;;;;;;1.83;1.53;;;8.80;99.90;;;;;;10006025;29;20212;-83
2020/12/14 17:54:29;;;;;;;3.43;1.60;;;8.80;99.90;;;;;;10023831;29;20221;-81
2020/12/14 17:59:53;;;;;;;6.17;2.97;;;8.80;99.90;;;;;;10002536;29;20197;-82
2020/12/14 18:05:15;;;;;;;4.67;1.97;;;8.90;99.90;;;;;;10054619;29;20261;-83
2020/12/14 18:10:38;;;;;;;2.70;1.43;;;8.80;99.90;;;;;;10054674;29;20225;-82
2020/12/14 18:16:01;;;;;;;4.70;2.07;;;8.90;99.90;;;;;;10016928;29;20641;-82
2020/12/14 18:21:22;;;;;;;5.07;1.63;;;8.90;99.90;;;;;;10033759;29;20224;-83
2020/12/14 18:26:44;;;;;;;2.17;1.50;;;8.90;99.90;;;;;;10014436;29;20241;-84
2020/12/14 19:36:08;;;;;;;7.73;3.87;;;8.60;99.90;;;;;;9983436;29;20204;-82
2020/12/14 21:24:15;;;;;;;2.70;2.30;;;6.70;99.90;;;;;;10002620;29;20220;-80
2020/12/14 21:29:36;;;;;;;3.50;2.90;;;6.60;99.90;;;;;;9984292;29;20201;-81
2020/12/14 21:34:58;;;;;;;2.70;2.00;;;6.60;99.90;;;;;;9982890;29;20750;-81
2020/12/14 21:40:20;;;;;;;2.97;2.40;;;6.60;99.90;;;;;;9982898;29;20228;-81
2020/12/14 21:45:42;;;;;;;3.50;2.30;;;6.60;99.90;;;;;;9984414;29;20256;-81
2020/12/14 21:51:04;;;;;;;2.20;2.00;;;6.70;99.90;;;;;;9981491;29;20699;-80
2020/12/14 21:56:26;;;;;;;2.70;2.13;;;6.80;99.90;;;;;;9988992;29;20197;-80
2020/12/14 22:01:48;;;;;;;4.40;2.10;;;6.80;99.90;;;;;;9989105;29;20220;-83
2020/12/14 22:07:10;;;;;;;3.17;2.30;;;6.80;99.90;;;;;;9988679;29;20220;-83
2020/12/14 22:12:32;;;;;;;3.23;2.30;;;7.00;99.90;;;;;;9988929;29;20604;-83
2020/12/14 22:17:54;;;;;;;4.03;2.80;;;7.00;99.90;;;;;;9986246;29;20205;-84
2020/12/14 22:23:16;;;;;;;4.20;2.73;;;7.00;99.90;;;;;;9985780;29;20258;-83
2020/12/14 22:28:38;;;;;;;4.47;2.73;;;7.00;99.90;;;;;;9985068;29;20217;-82
2020/12/14 22:34:00;;;;;;;6.13;2.67;;;6.80;99.90;;;;;;9981179;29;20604;-82
2020/12/14 22:39:21;;;;;;;3.47;2.27;;;6.80;99.90;;;;;;9983646;29;20722;-82
2020/12/14 22:44:44;;;;;;;5.27;2.40;;;6.80;99.90;;;;;;9982862;29;20212;-81
2020/12/14 22:50:05;;;;;;;3.27;2.20;;;6.60;99.90;;;;;;9983481;29;20229;-82
2020/12/14 22:55:27;;;;;;;2.77;2.20;;;6.70;99.90;;;;;;9946210;29;20194;-83
2020/12/14 23:00:50;;;;;;;2.47;2.20;;;6.60;99.90;;;;;;9946945;29;20625;-82
2020/12/14 23:06:11;;;;;;;3.27;2.70;;;6.70;99.90;;;;;;9949910;29;20225;-81
2020/12/14 23:11:33;;;;;;;3.23;2.37;;;6.70;99.90;;;;;;9952887;29;20218;-83
2020/12/14 23:16:55;;;;;;;2.30;2.10;;;6.60;99.90;;;;;;9974485;29;20201;-81
2020/12/14 23:22:17;;;;;;;2.50;2.30;;;6.60;99.90;;;;;;9990346;29;20221;-82
2020/12/14 23:27:39;;;;;;;3.27;1.90;;;6.60;99.90;;;;;;9990776;29;20231;-82
2020/12/14 23:33:01;;;;;;;2.90;2.27;;;6.70;99.90;;;;;;9989900;29;20228;-82
2020/12/14 23:38:25;;;;;;;2.73;2.40;;;6.80;99.90;;;;;;9991350;29;20193;-82
2020/12/14 23:43:46;;;;;;;4.17;2.10;;;6.90;99.90;;;;;;9987578;29;20229;-83
2020/12/14 23:49:09;;;;;;;4.50;2.97;;;6.90;99.90;;;;;;9990167;29;20541;-83
2020/12/14 23:54:30;;;;;;;2.43;2.20;;;7.10;99.90;;;;;;9987230;29;20235;-82
2020/12/14 23:59:52;;;;;;;3.87;2.50;;;7.20;99.90;;;;;;9992286;29;20197;-82
